sensor_id;sensor_type;location;lat;lon;timestamp;temperature;humidity
3560;DHT22;1794;48.804;9.156;2022-07-06T00:01:45;15.20;7.50
3560;DHT22;1794;48.804;9.156;2022-07-06T00:04:14;15.20;3.60
3560;DHT22;1794;48.804;9.156;2022-07-06T00:06:40;15.20;2.30
3560;DHT22;1794;48.804;9.156;2022-07-06T00:09:07;15.20;8.20
3560;DHT22;1794;48.804;9.156;2022-07-06T00:11:34;15.20;15.90
3560;DHT22;1794;48.804;9.156;2022-07-06T00:14:01;15.00;19.40
3560;DHT22;1794;48.804;9.156;2022-07-06T00:16:28;15.00;24.40
3560;DHT22;1794;48.804;9.156;2022-07-06T00:18:54;15.00;24.10
3560;DHT22;1794;48.804;9.156;2022-07-06T00:21:23;15.10;17.40
3560;DHT22;1794;48.804;9.156;2022-07-06T00:23:49;15.20;9.40
3560;DHT22;1794;48.804;9.156;2022-07-06T00:26:17;15.20;20.70
3560;DHT22;1794;48.804;9.156;2022-07-06T00:28:44;15.20;29.70
3560;DHT22;1794;48.804;9.156;2022-07-06T00:31:11;15.20;3.80
3560;DHT22;1794;48.804;9.156;2022-07-06T00:33:37;15.20;11.50
3560;DHT22;1794;48.804;9.156;2022-07-06T00:36:04;15.20;6.80
3560;DHT22;1794;48.804;9.156;2022-07-06T00:38:32;15.20;11.10
3560;DHT22;1794;48.804;9.156;2022-07-06T00:40:59;15.20;15.00
3560;DHT22;1794;48.804;9.156;2022-07-06T00:43:26;15.30;1.00
3560;DHT22;1794;48.804;9.156;2022-07-06T00:45:53;15.40;1.00
3560;DHT22;1794;48.804;9.156;2022-07-06T00:48:20;15.40;1.00
3560;DHT22;1794;48.804;9.156;2022-07-06T00:50:47;15.40;1.00
3560;DHT22;1794;48.804;9.156;2022-07-06T00:53:14;15.60;1.00
3560;DHT22;1794;48.804;9.156;2022-07-06T00:55:42;15.50;1.00
3560;DHT22;1794;48.804;9.156;2022-07-06T00:58:09;15.70;1.00
3560;DHT22;1794;48.804;9.156;2022-07-06T01:00:36;15.70;1.00
3560;DHT22;1794;48.804;9.156;2022-07-06T01:03:04;15.70;1.00
3560;DHT22;1794;48.804;9.156;2022-07-06T01:05:30;15.80;1.00
3560;DHT22;1794;48.804;9.156;2022-07-06T01:07:57;16.00;1.00
3560;DHT22;1794;48.804;9.156;2022-07-06T01:10:26;16.10;1.00
3560;DHT22;1794;48.804;9.156;2022-07-06T01:12:55;16.20;1.00
3560;DHT22;1794;48.804;9.156;2022-07-06T01:15:24;16.20;1.00
3560;DHT22;1794;48.804;9.156;2022-07-06T01:17:52;16.20;1.00
3560;DHT22;1794;48.804;9.156;2022-07-06T01:20:22;16.20;1.00
3560;DHT22;1794;48.804;9.156;2022-07-06T01:22:51;16.10;1.00
3560;DHT22;1794;48.804;9.156;2022-07-06T01:25:19;16.10;1.00
3560;DHT22;1794;48.804;9.156;2022-07-06T01:27:46;16.10;1.00
3560;DHT22;1794;48.804;9.156;2022-07-06T01:30:15;16.10;1.00
3560;DHT22;1794;48.804;9.156;2022-07-06T01:32:43;16.00;1.00
3560;DHT22;1794;48.804;9.156;2022-07-06T01:35:12;16.00;1.00
3560;DHT22;1794;48.804;9.156;2022-07-06T01:37:41;15.90;1.00
3560;DHT22;1794;48.804;9.156;2022-07-06T01:40:11;15.90;1.00
3560;DHT22;1794;48.804;9.156;2022-07-06T01:42:38;15.90;1.00
3560;DHT22;1794;48.804;9.156;2022-07-06T01:45:06;16.00;1.00
3560;DHT22;1794;48.804;9.156;2022-07-06T01:47:33;15.90;1.00
3560;DHT22;1794;48.804;9.156;2022-07-06T01:50:00;15.80;1.00
3560;DHT22;1794;48.804;9.156;2022-07-06T01:52:27;15.70;1.00
3560;DHT22;1794;48.804;9.156;2022-07-06T01:54:56;15.60;1.00
3560;DHT22;1794;48.804;9.156;2022-07-06T01:57:23;15.50;1.00
3560;DHT22;1794;48.804;9.156;2022-07-06T01:59:50;15.50;1.00
3560;DHT22;1794;48.804;9.156;2022-07-06T02:02:17;15.40;1.00
3560;DHT22;1794;48.804;9.156;2022-07-06T02:04:44;15.40;1.00
3560;DHT22;1794;48.804;9.156;2022-07-06T02:07:10;15.40;1.00
3560;DHT22;1794;48.804;9.156;2022-07-06T02:09:37;15.30;1.00
3560;DHT22;1794;48.804;9.156;2022-07-06T02:12:06;15.40;1.00
3560;DHT22;1794;48.804;9.156;2022-07-06T02:14:33;15.50;1.00
3560;DHT22;1794;48.804;9.156;2022-07-06T02:16:59;15.50;1.00
3560;DHT22;1794;48.804;9.156;2022-07-06T02:19:26;15.40;1.00
3560;DHT22;1794;48.804;9.156;2022-07-06T02:21:53;15.40;1.00
3560;DHT22;1794;48.804;9.156;2022-07-06T02:24:19;15.40;1.00
3560;DHT22;1794;48.804;9.156;2022-07-06T02:26:46;15.40;1.00
3560;DHT22;1794;48.804;9.156;2022-07-06T02:29:15;15.40;1.00
3560;DHT22;1794;48.804;9.156;2022-07-06T02:31:41;15.40;1.00
3560;DHT22;1794;48.804;9.156;2022-07-06T02:34:08;15.40;1.00
3560;DHT22;1794;48.804;9.156;2022-07-06T02:36:35;15.40;1.00
3560;DHT22;1794;48.804;9.156;2022-07-06T02:39:02;15.40;1.00
3560;DHT22;1794;48.804;9.156;2022-07-06T02:41:28;15.40;1.00
3560;DHT22;1794;48.804;9.156;2022-07-06T02:43:55;15.40;1.00
3560;DHT22;1794;48.804;9.156;2022-07-06T02:46:23;15.20;1.00
3560;DHT22;1794;48.804;9.156;2022-07-06T02:48:50;15.10;1.00
3560;DHT22;1794;48.804;9.156;2022-07-06T02:51:17;15.10;1.00
3560;DHT22;1794;48.804;9.156;2022-07-06T02:53:43;15.00;1.00
3560;DHT22;1794;48.804;9.156;2022-07-06T02:56:10;15.00;1.00
3560;DHT22;1794;48.804;9.156;2022-07-06T02:58:37;14.90;1.00
3560;DHT22;1794;48.804;9.156;2022-07-06T03:01:03;14.90;1.00
3560;DHT22;1794;48.804;9.156;2022-07-06T03:03:32;15.00;1.00
3560;DHT22;1794;48.804;9.156;2022-07-06T03:05:59;15.00;1.00
3560;DHT22;1794;48.804;9.156;2022-07-06T03:08:26;14.90;1.00
3560;DHT22;1794;48.804;9.156;2022-07-06T03:10:52;14.90;1.00
3560;DHT22;1794;48.804;9.156;2022-07-06T03:13:19;14.90;1.00
3560;DHT22;1794;48.804;9.156;2022-07-06T03:15:46;14.90;1.00
3560;DHT22;1794;48.804;9.156;2022-07-06T03:18:12;14.90;1.00
3560;DHT22;1794;48.804;9.156;2022-07-06T03:20:40;15.00;1.00
3560;DHT22;1794;48.804;9.156;2022-07-06T03:23:07;15.00;1.00
3560;DHT22;1794;48.804;9.156;2022-07-06T03:25:34;15.00;1.00
3560;DHT22;1794;48.804;9.156;2022-07-06T03:28:01;15.00;1.00
3560;DHT22;1794;48.804;9.156;2022-07-06T03:30:28;15.00;1.00
3560;DHT22;1794;48.804;9.156;2022-07-06T03:32:54;15.10;1.00
3560;DHT22;1794;48.804;9.156;2022-07-06T03:35:21;15.10;1.00
3560;DHT22;1794;48.804;9.156;2022-07-06T03:37:49;15.00;1.00
3560;DHT22;1794;48.804;9.156;2022-07-06T03:40:16;14.90;1.00
3560;DHT22;1794;48.804;9.156;2022-07-06T03:42:43;15.00;1.00
3560;DHT22;1794;48.804;9.156;2022-07-06T03:45:10;15.00;1.00
3560;DHT22;1794;48.804;9.156;2022-07-06T03:47:36;15.10;1.00
3560;DHT22;1794;48.804;9.156;2022-07-06T03:50:04;15.00;1.00
3560;DHT22;1794;48.804;9.156;2022-07-06T03:52:31;15.00;1.00
3560;DHT22;1794;48.804;9.156;2022-07-06T03:54:59;15.10;1.00
3560;DHT22;1794;48.804;9.156;2022-07-06T03:57:25;15.10;1.00
3560;DHT22;1794;48.804;9.156;2022-07-06T03:59:52;15.30;1.00
3560;DHT22;1794;48.804;9.156;2022-07-06T04:02:19;15.30;1.00
3560;DHT22;1794;48.804;9.156;2022-07-06T04:04:45;15.40;1.00
3560;DHT22;1794;48.804;9.156;2022-07-06T04:07:12;15.40;1.00
3560;DHT22;1794;48.804;9.156;2022-07-06T04:09:39;15.40;1.00
3560;DHT22;1794;48.804;9.156;2022-07-06T04:12:07;15.30;1.00
3560;DHT22;1794;48.804;9.156;2022-07-06T04:14:34;15.30;1.00
3560;DHT22;1794;48.804;9.156;2022-07-06T04:17:01;15.30;1.00
3560;DHT22;1794;48.804;9.156;2022-07-06T04:19:48;15.30;1.00
3560;DHT22;1794;48.804;9.156;2022-07-06T04:22:15;15.40;1.00
3560;DHT22;1794;48.804;9.156;2022-07-06T04:24:42;15.50;1.00
3560;DHT22;1794;48.804;9.156;2022-07-06T04:27:10;15.40;1.00
3560;DHT22;1794;48.804;9.156;2022-07-06T04:29:37;15.30;1.00
3560;DHT22;1794;48.804;9.156;2022-07-06T04:32:04;15.30;1.00
3560;DHT22;1794;48.804;9.156;2022-07-06T04:34:31;15.50;1.00
3560;DHT22;1794;48.804;9.156;2022-07-06T04:36:58;15.50;1.00
3560;DHT22;1794;48.804;9.156;2022-07-06T04:39:25;15.70;1.00
3560;DHT22;1794;48.804;9.156;2022-07-06T04:41:51;15.50;1.00
3560;DHT22;1794;48.804;9.156;2022-07-06T04:44:20;15.60;1.00
3560;DHT22;1794;48.804;9.156;2022-07-06T04:46:46;15.80;1.00
3560;DHT22;1794;48.804;9.156;2022-07-06T04:49:13;15.90;1.00
3560;DHT22;1794;48.804;9.156;2022-07-06T04:51:40;16.20;1.00
3560;DHT22;1794;48.804;9.156;2022-07-06T04:54:06;16.30;1.00
3560;DHT22;1794;48.804;9.156;2022-07-06T04:56:33;16.40;1.00
3560;DHT22;1794;48.804;9.156;2022-07-06T04:59:00;16.40;1.00
3560;DHT22;1794;48.804;9.156;2022-07-06T05:01:28;16.70;1.00
3560;DHT22;1794;48.804;9.156;2022-07-06T05:03:55;16.70;1.00
3560;DHT22;1794;48.804;9.156;2022-07-06T05:06:21;16.80;1.00
3560;DHT22;1794;48.804;9.156;2022-07-06T05:08:48;17.10;1.00
3560;DHT22;1794;48.804;9.156;2022-07-06T05:11:15;17.20;1.00
3560;DHT22;1794;48.804;9.156;2022-07-06T05:13:42;17.40;1.00
3560;DHT22;1794;48.804;9.156;2022-07-06T05:16:09;17.60;1.00
3560;DHT22;1794;48.804;9.156;2022-07-06T05:18:37;17.80;1.00
3560;DHT22;1794;48.804;9.156;2022-07-06T05:21:04;18.10;1.00
3560;DHT22;1794;48.804;9.156;2022-07-06T05:23:30;18.10;1.00
3560;DHT22;1794;48.804;9.156;2022-07-06T05:25:57;18.30;1.00
3560;DHT22;1794;48.804;9.156;2022-07-06T05:28:24;18.40;1.00
3560;DHT22;1794;48.804;9.156;2022-07-06T05:30:51;18.70;1.00
3560;DHT22;1794;48.804;9.156;2022-07-06T05:33:20;18.90;1.00
3560;DHT22;1794;48.804;9.156;2022-07-06T05:35:48;19.30;1.00
3560;DHT22;1794;48.804;9.156;2022-07-06T05:38:15;19.70;99.90
3560;DHT22;1794;48.804;9.156;2022-07-06T05:40:42;19.80;99.90
3560;DHT22;1794;48.804;9.156;2022-07-06T05:43:09;19.90;99.90
3560;DHT22;1794;48.804;9.156;2022-07-06T05:45:35;19.40;99.90
3560;DHT22;1794;48.804;9.156;2022-07-06T05:48:02;19.40;1.00
3560;DHT22;1794;48.804;9.156;2022-07-06T05:50:48;19.30;1.00
3560;DHT22;1794;48.804;9.156;2022-07-06T05:53:15;20.00;99.90
3560;DHT22;1794;48.804;9.156;2022-07-06T05:55:41;20.30;99.90
3560;DHT22;1794;48.804;9.156;2022-07-06T05:58:08;20.50;99.90
3560;DHT22;1794;48.804;9.156;2022-07-06T06:00:35;20.80;99.90
3560;DHT22;1794;48.804;9.156;2022-07-06T06:03:02;20.90;99.90
3560;DHT22;1794;48.804;9.156;2022-07-06T06:05:29;20.90;99.90
3560;DHT22;1794;48.804;9.156;2022-07-06T06:07:57;21.40;99.90
3560;DHT22;1794;48.804;9.156;2022-07-06T06:10:23;21.90;1.00
3560;DHT22;1794;48.804;9.156;2022-07-06T06:12:51;21.60;1.00
3560;DHT22;1794;48.804;9.156;2022-07-06T06:15:17;21.70;1.00
3560;DHT22;1794;48.804;9.156;2022-07-06T06:17:44;22.00;1.00
3560;DHT22;1794;48.804;9.156;2022-07-06T06:20:14;22.00;50.30
3560;DHT22;1794;48.804;9.156;2022-07-06T06:22:44;22.40;99.90
3560;DHT22;1794;48.804;9.156;2022-07-06T06:25:13;22.90;1.00
3560;DHT22;1794;48.804;9.156;2022-07-06T06:27:40;23.00;1.00
3560;DHT22;1794;48.804;9.156;2022-07-06T06:30:08;22.90;99.90
3560;DHT22;1794;48.804;9.156;2022-07-06T06:32:35;23.00;1.00
3560;DHT22;1794;48.804;9.156;2022-07-06T06:35:02;22.90;1.00
3560;DHT22;1794;48.804;9.156;2022-07-06T06:37:29;23.30;1.00
3560;DHT22;1794;48.804;9.156;2022-07-06T06:39:56;23.40;1.00
3560;DHT22;1794;48.804;9.156;2022-07-06T06:42:24;23.80;1.00
3560;DHT22;1794;48.804;9.156;2022-07-06T06:44:50;24.30;99.90
3560;DHT22;1794;48.804;9.156;2022-07-06T06:47:17;24.50;99.90
3560;DHT22;1794;48.804;9.156;2022-07-06T06:49:45;24.50;99.90
3560;DHT22;1794;48.804;9.156;2022-07-06T06:52:12;24.70;87.70
3560;DHT22;1794;48.804;9.156;2022-07-06T06:54:39;24.90;24.40
3560;DHT22;1794;48.804;9.156;2022-07-06T06:57:06;24.50;11.40
3560;DHT22;1794;48.804;9.156;2022-07-06T06:59:34;24.40;94.80
3560;DHT22;1794;48.804;9.156;2022-07-06T07:02:01;24.60;7.30
3560;DHT22;1794;48.804;9.156;2022-07-06T07:04:27;24.70;1.00
3560;DHT22;1794;48.804;9.156;2022-07-06T07:06:56;24.50;1.00
3560;DHT22;1794;48.804;9.156;2022-07-06T07:09:23;24.20;29.60
3560;DHT22;1794;48.804;9.156;2022-07-06T07:11:50;24.70;1.00
3560;DHT22;1794;48.804;9.156;2022-07-06T07:14:16;24.70;1.00
3560;DHT22;1794;48.804;9.156;2022-07-06T07:16:44;24.70;1.00
3560;DHT22;1794;48.804;9.156;2022-07-06T07:19:11;23.80;99.90
3560;DHT22;1794;48.804;9.156;2022-07-06T07:21:37;24.40;45.20
3560;DHT22;1794;48.804;9.156;2022-07-06T07:24:05;24.50;1.00
3560;DHT22;1794;48.804;9.156;2022-07-06T07:26:32;24.40;1.00
3560;DHT22;1794;48.804;9.156;2022-07-06T07:28:59;23.50;45.30
3560;DHT22;1794;48.804;9.156;2022-07-06T07:31:26;23.90;51.20
3560;DHT22;1794;48.804;9.156;2022-07-06T07:33:54;24.20;26.70
3560;DHT22;1794;48.804;9.156;2022-07-06T07:36:22;24.50;1.00
3560;DHT22;1794;48.804;9.156;2022-07-06T07:38:49;24.90;1.00
3560;DHT22;1794;48.804;9.156;2022-07-06T07:41:15;24.80;1.00
3560;DHT22;1794;48.804;9.156;2022-07-06T07:43:42;25.20;1.00
3560;DHT22;1794;48.804;9.156;2022-07-06T07:46:09;25.40;1.00
3560;DHT22;1794;48.804;9.156;2022-07-06T07:48:36;25.20;1.00
3560;DHT22;1794;48.804;9.156;2022-07-06T07:51:04;25.20;1.00
3560;DHT22;1794;48.804;9.156;2022-07-06T07:53:31;25.30;1.00
3560;DHT22;1794;48.804;9.156;2022-07-06T07:55:57;25.50;1.00
3560;DHT22;1794;48.804;9.156;2022-07-06T07:58:24;25.30;1.00
3560;DHT22;1794;48.804;9.156;2022-07-06T08:00:51;26.20;1.00
3560;DHT22;1794;48.804;9.156;2022-07-06T08:03:17;26.00;1.00
3560;DHT22;1794;48.804;9.156;2022-07-06T08:05:44;24.50;1.00
3560;DHT22;1794;48.804;9.156;2022-07-06T08:08:14;24.80;1.00
3560;DHT22;1794;48.804;9.156;2022-07-06T08:10:41;25.20;1.00
3560;DHT22;1794;48.804;9.156;2022-07-06T08:13:07;25.50;1.00
3560;DHT22;1794;48.804;9.156;2022-07-06T08:15:36;25.40;1.00
3560;DHT22;1794;48.804;9.156;2022-07-06T08:18:03;25.80;1.00
3560;DHT22;1794;48.804;9.156;2022-07-06T08:20:29;26.50;1.00
3560;DHT22;1794;48.804;9.156;2022-07-06T08:22:56;26.40;1.00
3560;DHT22;1794;48.804;9.156;2022-07-06T08:25:24;26.30;1.00
3560;DHT22;1794;48.804;9.156;2022-07-06T08:27:51;26.60;1.00
3560;DHT22;1794;48.804;9.156;2022-07-06T08:30:17;26.20;1.00
3560;DHT22;1794;48.804;9.156;2022-07-06T08:32:44;26.40;1.00
3560;DHT22;1794;48.804;9.156;2022-07-06T08:35:11;26.50;1.00
3560;DHT22;1794;48.804;9.156;2022-07-06T08:37:38;26.80;1.00
3560;DHT22;1794;48.804;9.156;2022-07-06T08:40:06;27.00;1.00
3560;DHT22;1794;48.804;9.156;2022-07-06T08:42:34;27.60;99.90
3560;DHT22;1794;48.804;9.156;2022-07-06T08:45:04;27.80;99.90
3560;DHT22;1794;48.804;9.156;2022-07-06T08:47:31;27.80;99.90
3560;DHT22;1794;48.804;9.156;2022-07-06T08:49:58;27.90;99.90
3560;DHT22;1794;48.804;9.156;2022-07-06T08:52:25;28.40;99.90
3560;DHT22;1794;48.804;9.156;2022-07-06T08:54:52;27.20;99.90
3560;DHT22;1794;48.804;9.156;2022-07-06T08:57:19;28.20;99.90
3560;DHT22;1794;48.804;9.156;2022-07-06T08:59:47;28.40;99.90
3560;DHT22;1794;48.804;9.156;2022-07-06T09:02:14;28.60;99.90
3560;DHT22;1794;48.804;9.156;2022-07-06T09:04:43;29.10;99.90
3560;DHT22;1794;48.804;9.156;2022-07-06T09:07:09;30.30;99.90
3560;DHT22;1794;48.804;9.156;2022-07-06T09:09:37;30.30;99.90
3560;DHT22;1794;48.804;9.156;2022-07-06T09:12:04;29.80;99.90
3560;DHT22;1794;48.804;9.156;2022-07-06T09:14:34;30.10;99.90
3560;DHT22;1794;48.804;9.156;2022-07-06T09:17:04;29.90;99.90
3560;DHT22;1794;48.804;9.156;2022-07-06T09:19:31;29.90;99.90
3560;DHT22;1794;48.804;9.156;2022-07-06T09:21:58;29.50;99.90
3560;DHT22;1794;48.804;9.156;2022-07-06T09:24:25;29.80;99.90
3560;DHT22;1794;48.804;9.156;2022-07-06T09:26:55;30.70;99.90
3560;DHT22;1794;48.804;9.156;2022-07-06T09:29:27;29.00;99.90
3560;DHT22;1794;48.804;9.156;2022-07-06T09:31:58;28.80;99.90
3560;DHT22;1794;48.804;9.156;2022-07-06T09:34:40;31.00;99.90
3560;DHT22;1794;48.804;9.156;2022-07-06T09:37:07;31.00;99.90
3560;DHT22;1794;48.804;9.156;2022-07-06T09:39:34;30.40;99.90
3560;DHT22;1794;48.804;9.156;2022-07-06T09:42:03;31.30;99.90
3560;DHT22;1794;48.804;9.156;2022-07-06T09:44:31;30.50;99.90
3560;DHT22;1794;48.804;9.156;2022-07-06T09:46:59;30.20;99.90
3560;DHT22;1794;48.804;9.156;2022-07-06T09:49:27;30.30;99.90
3560;DHT22;1794;48.804;9.156;2022-07-06T09:51:55;31.10;99.90
3560;DHT22;1794;48.804;9.156;2022-07-06T09:54:22;31.60;99.90
3560;DHT22;1794;48.804;9.156;2022-07-06T09:56:50;31.60;99.90
3560;DHT22;1794;48.804;9.156;2022-07-06T09:59:19;32.00;99.90
3560;DHT22;1794;48.804;9.156;2022-07-06T10:01:47;32.40;99.90
3560;DHT22;1794;48.804;9.156;2022-07-06T10:04:14;33.00;99.90
3560;DHT22;1794;48.804;9.156;2022-07-06T10:06:45;33.50;99.90
3560;DHT22;1794;48.804;9.156;2022-07-06T10:09:13;33.60;99.90
3560;DHT22;1794;48.804;9.156;2022-07-06T10:11:42;31.80;99.90
3560;DHT22;1794;48.804;9.156;2022-07-06T10:14:10;28.80;99.90
3560;DHT22;1794;48.804;9.156;2022-07-06T10:16:39;30.90;99.90
3560;DHT22;1794;48.804;9.156;2022-07-06T10:19:07;31.70;99.90
3560;DHT22;1794;48.804;9.156;2022-07-06T10:21:36;31.50;99.90
3560;DHT22;1794;48.804;9.156;2022-07-06T10:24:05;31.30;99.90
3560;DHT22;1794;48.804;9.156;2022-07-06T10:26:33;31.80;99.90
3560;DHT22;1794;48.804;9.156;2022-07-06T10:29:00;28.20;99.90
3560;DHT22;1794;48.804;9.156;2022-07-06T10:31:27;28.50;99.90
3560;DHT22;1794;48.804;9.156;2022-07-06T10:33:56;29.80;99.90
3560;DHT22;1794;48.804;9.156;2022-07-06T10:36:23;30.90;99.90
3560;DHT22;1794;48.804;9.156;2022-07-06T10:38:51;31.10;99.90
3560;DHT22;1794;48.804;9.156;2022-07-06T10:41:30;31.80;99.90
3560;DHT22;1794;48.804;9.156;2022-07-06T10:43:56;31.80;99.90
3560;DHT22;1794;48.804;9.156;2022-07-06T10:46:27;31.40;99.90
3560;DHT22;1794;48.804;9.156;2022-07-06T10:48:54;31.00;99.90
3560;DHT22;1794;48.804;9.156;2022-07-06T10:51:23;31.50;99.90
3560;DHT22;1794;48.804;9.156;2022-07-06T10:53:55;31.40;99.90
3560;DHT22;1794;48.804;9.156;2022-07-06T10:56:32;31.10;99.90
3560;DHT22;1794;48.804;9.156;2022-07-06T10:59:02;31.10;99.90
3560;DHT22;1794;48.804;9.156;2022-07-06T11:01:29;29.00;99.90
3560;DHT22;1794;48.804;9.156;2022-07-06T11:04:06;31.10;99.90
3560;DHT22;1794;48.804;9.156;2022-07-06T11:06:34;32.60;99.90
3560;DHT22;1794;48.804;9.156;2022-07-06T11:09:02;31.10;99.90
3560;DHT22;1794;48.804;9.156;2022-07-06T11:11:40;29.70;99.90
3560;DHT22;1794;48.804;9.156;2022-07-06T11:14:08;29.70;99.90
3560;DHT22;1794;48.804;9.156;2022-07-06T11:16:38;30.60;99.90
3560;DHT22;1794;48.804;9.156;2022-07-06T11:19:08;30.90;99.90
3560;DHT22;1794;48.804;9.156;2022-07-06T11:21:45;28.90;99.90
3560;DHT22;1794;48.804;9.156;2022-07-06T11:24:14;29.30;99.90
3560;DHT22;1794;48.804;9.156;2022-07-06T11:26:44;30.90;99.90
3560;DHT22;1794;48.804;9.156;2022-07-06T11:29:12;31.60;99.90
3560;DHT22;1794;48.804;9.156;2022-07-06T11:31:41;31.10;99.90
3560;DHT22;1794;48.804;9.156;2022-07-06T11:34:08;30.00;99.90
3560;DHT22;1794;48.804;9.156;2022-07-06T11:36:36;31.70;99.90
3560;DHT22;1794;48.804;9.156;2022-07-06T11:39:03;32.50;99.90
3560;DHT22;1794;48.804;9.156;2022-07-06T11:41:31;31.10;99.90
3560;DHT22;1794;48.804;9.156;2022-07-06T11:43:59;30.10;99.90
3560;DHT22;1794;48.804;9.156;2022-07-06T11:46:27;30.40;99.90
3560;DHT22;1794;48.804;9.156;2022-07-06T11:48:56;27.40;99.90
3560;DHT22;1794;48.804;9.156;2022-07-06T11:51:24;29.50;99.90
3560;DHT22;1794;48.804;9.156;2022-07-06T11:53:52;30.00;99.90
3560;DHT22;1794;48.804;9.156;2022-07-06T11:56:19;31.30;99.90
3560;DHT22;1794;48.804;9.156;2022-07-06T11:58:49;31.80;99.90
3560;DHT22;1794;48.804;9.156;2022-07-06T12:01:17;32.50;99.90
3560;DHT22;1794;48.804;9.156;2022-07-06T12:03:45;33.40;99.90
3560;DHT22;1794;48.804;9.156;2022-07-06T12:06:17;32.70;99.90
3560;DHT22;1794;48.804;9.156;2022-07-06T12:08:45;31.00;99.90
3560;DHT22;1794;48.804;9.156;2022-07-06T12:11:23;31.80;99.90
3560;DHT22;1794;48.804;9.156;2022-07-06T12:13:51;32.10;99.90
3560;DHT22;1794;48.804;9.156;2022-07-06T12:16:20;31.80;99.90
3560;DHT22;1794;48.804;9.156;2022-07-06T12:18:49;32.00;99.90
3560;DHT22;1794;48.804;9.156;2022-07-06T12:21:18;32.10;99.90
3560;DHT22;1794;48.804;9.156;2022-07-06T12:23:48;32.00;99.90
3560;DHT22;1794;48.804;9.156;2022-07-06T12:26:17;32.60;99.90
3560;DHT22;1794;48.804;9.156;2022-07-06T12:28:45;32.00;99.90
3560;DHT22;1794;48.804;9.156;2022-07-06T12:31:32;31.90;99.90
3560;DHT22;1794;48.804;9.156;2022-07-06T12:33:59;29.50;99.90
3560;DHT22;1794;48.804;9.156;2022-07-06T12:36:26;29.90;99.90
3560;DHT22;1794;48.804;9.156;2022-07-06T12:38:53;29.60;99.90
3560;DHT22;1794;48.804;9.156;2022-07-06T12:41:30;28.70;99.90
3560;DHT22;1794;48.804;9.156;2022-07-06T12:44:03;27.50;99.90
3560;DHT22;1794;48.804;9.156;2022-07-06T12:46:33;27.20;99.90
3560;DHT22;1794;48.804;9.156;2022-07-06T12:49:02;26.80;99.90
3560;DHT22;1794;48.804;9.156;2022-07-06T12:51:29;26.90;99.90
3560;DHT22;1794;48.804;9.156;2022-07-06T12:54:15;26.70;99.90
3560;DHT22;1794;48.804;9.156;2022-07-06T12:57:07;26.00;99.90
3560;DHT22;1794;48.804;9.156;2022-07-06T12:59:35;26.20;99.90
3560;DHT22;1794;48.804;9.156;2022-07-06T13:02:05;26.30;99.90
3560;DHT22;1794;48.804;9.156;2022-07-06T13:04:33;26.50;99.90
3560;DHT22;1794;48.804;9.156;2022-07-06T13:07:00;26.40;99.90
3560;DHT22;1794;48.804;9.156;2022-07-06T13:09:28;26.20;99.90
3560;DHT22;1794;48.804;9.156;2022-07-06T13:11:54;26.00;99.90
3560;DHT22;1794;48.804;9.156;2022-07-06T13:14:21;25.90;99.90
3560;DHT22;1794;48.804;9.156;2022-07-06T13:16:48;25.60;99.90
3560;DHT22;1794;48.804;9.156;2022-07-06T13:19:16;25.80;99.90
3560;DHT22;1794;48.804;9.156;2022-07-06T13:21:43;26.20;99.90
3560;DHT22;1794;48.804;9.156;2022-07-06T13:24:11;26.40;99.90
3560;DHT22;1794;48.804;9.156;2022-07-06T13:26:38;25.80;99.90
3560;DHT22;1794;48.804;9.156;2022-07-06T13:29:04;26.00;99.90
3560;DHT22;1794;48.804;9.156;2022-07-06T13:31:31;26.30;99.90
3560;DHT22;1794;48.804;9.156;2022-07-06T13:33:58;26.20;99.90
3560;DHT22;1794;48.804;9.156;2022-07-06T13:36:26;26.00;99.90
3560;DHT22;1794;48.804;9.156;2022-07-06T13:38:53;25.70;99.90
3560;DHT22;1794;48.804;9.156;2022-07-06T13:41:19;25.40;99.90
3560;DHT22;1794;48.804;9.156;2022-07-06T13:43:46;25.40;99.90
3560;DHT22;1794;48.804;9.156;2022-07-06T13:46:12;25.60;99.90
3560;DHT22;1794;48.804;9.156;2022-07-06T13:48:40;25.20;99.90
3560;DHT22;1794;48.804;9.156;2022-07-06T13:51:07;25.00;99.90
3560;DHT22;1794;48.804;9.156;2022-07-06T13:53:35;25.10;99.90
3560;DHT22;1794;48.804;9.156;2022-07-06T13:56:02;25.50;99.90
3560;DHT22;1794;48.804;9.156;2022-07-06T13:58:29;25.50;99.90
3560;DHT22;1794;48.804;9.156;2022-07-06T14:00:56;25.50;99.90
3560;DHT22;1794;48.804;9.156;2022-07-06T14:03:22;25.70;99.90
3560;DHT22;1794;48.804;9.156;2022-07-06T14:05:55;25.40;99.90
3560;DHT22;1794;48.804;9.156;2022-07-06T14:08:22;25.70;99.90
3560;DHT22;1794;48.804;9.156;2022-07-06T14:10:50;25.70;99.90
3560;DHT22;1794;48.804;9.156;2022-07-06T14:13:16;25.50;99.90
3560;DHT22;1794;48.804;9.156;2022-07-06T14:15:43;25.20;99.90
3560;DHT22;1794;48.804;9.156;2022-07-06T14:18:10;24.30;99.90
3560;DHT22;1794;48.804;9.156;2022-07-06T14:20:37;24.50;99.90
3560;DHT22;1794;48.804;9.156;2022-07-06T14:23:04;25.00;99.90
3560;DHT22;1794;48.804;9.156;2022-07-06T14:25:31;25.40;99.90
3560;DHT22;1794;48.804;9.156;2022-07-06T14:27:59;25.10;99.90
3560;DHT22;1794;48.804;9.156;2022-07-06T14:30:27;24.90;99.90
3560;DHT22;1794;48.804;9.156;2022-07-06T14:32:54;24.90;99.90
3560;DHT22;1794;48.804;9.156;2022-07-06T14:35:21;24.70;99.90
3560;DHT22;1794;48.804;9.156;2022-07-06T14:37:50;24.80;99.90
3560;DHT22;1794;48.804;9.156;2022-07-06T14:40:17;25.10;99.90
3560;DHT22;1794;48.804;9.156;2022-07-06T14:42:43;24.70;99.90
3560;DHT22;1794;48.804;9.156;2022-07-06T14:45:11;25.00;99.90
3560;DHT22;1794;48.804;9.156;2022-07-06T14:47:38;25.00;99.90
3560;DHT22;1794;48.804;9.156;2022-07-06T14:50:05;24.80;99.90
3560;DHT22;1794;48.804;9.156;2022-07-06T14:52:32;25.10;99.90
3560;DHT22;1794;48.804;9.156;2022-07-06T14:54:58;25.40;99.90
3560;DHT22;1794;48.804;9.156;2022-07-06T14:57:26;25.10;99.90
3560;DHT22;1794;48.804;9.156;2022-07-06T14:59:53;24.80;99.90
3560;DHT22;1794;48.804;9.156;2022-07-06T15:02:21;24.90;99.90
3560;DHT22;1794;48.804;9.156;2022-07-06T15:04:47;24.80;99.90
3560;DHT22;1794;48.804;9.156;2022-07-06T15:07:14;24.80;99.90
3560;DHT22;1794;48.804;9.156;2022-07-06T15:09:42;25.10;99.90
3560;DHT22;1794;48.804;9.156;2022-07-06T15:12:09;25.00;99.90
3560;DHT22;1794;48.804;9.156;2022-07-06T15:14:36;24.80;99.90
3560;DHT22;1794;48.804;9.156;2022-07-06T15:17:03;24.90;99.90
3560;DHT22;1794;48.804;9.156;2022-07-06T15:19:31;25.10;99.90
3560;DHT22;1794;48.804;9.156;2022-07-06T15:21:58;25.00;99.90
3560;DHT22;1794;48.804;9.156;2022-07-06T15:24:24;25.00;99.90
3560;DHT22;1794;48.804;9.156;2022-07-06T15:26:51;25.00;99.90
3560;DHT22;1794;48.804;9.156;2022-07-06T15:29:18;24.80;99.90
3560;DHT22;1794;48.804;9.156;2022-07-06T15:31:45;24.60;99.90
3560;DHT22;1794;48.804;9.156;2022-07-06T15:34:11;24.30;99.90
3560;DHT22;1794;48.804;9.156;2022-07-06T15:36:40;24.10;99.90
3560;DHT22;1794;48.804;9.156;2022-07-06T15:39:06;24.00;99.90
3560;DHT22;1794;48.804;9.156;2022-07-06T15:41:33;24.10;99.90
3560;DHT22;1794;48.804;9.156;2022-07-06T15:44:00;23.90;99.90
3560;DHT22;1794;48.804;9.156;2022-07-06T15:46:26;23.80;99.90
3560;DHT22;1794;48.804;9.156;2022-07-06T15:48:53;23.80;99.90
3560;DHT22;1794;48.804;9.156;2022-07-06T15:51:20;23.80;99.90
3560;DHT22;1794;48.804;9.156;2022-07-06T15:53:48;23.90;99.90
3560;DHT22;1794;48.804;9.156;2022-07-06T15:56:16;24.00;99.90
3560;DHT22;1794;48.804;9.156;2022-07-06T15:58:43;24.10;99.90
3560;DHT22;1794;48.804;9.156;2022-07-06T16:01:10;23.90;99.90
3560;DHT22;1794;48.804;9.156;2022-07-06T16:03:37;24.20;99.90
3560;DHT22;1794;48.804;9.156;2022-07-06T16:06:04;23.80;99.90
3560;DHT22;1794;48.804;9.156;2022-07-06T16:08:31;24.30;99.90
3560;DHT22;1794;48.804;9.156;2022-07-06T16:11:00;24.00;99.90
3560;DHT22;1794;48.804;9.156;2022-07-06T16:13:26;23.40;99.90